createdAt,value
2018-08-28T00:00:50.866Z,18.70
2018-08-28T00:03:19.299Z,18.70
2018-08-28T00:05:47.741Z,18.70
2018-08-28T00:08:16.205Z,18.80
2018-08-28T00:10:44.644Z,18.70
2018-08-28T00:13:13.102Z,18.70
2018-08-28T00:15:41.586Z,18.70
2018-08-28T00:18:09.999Z,18.60
2018-08-28T00:20:38.427Z,18.60
2018-08-28T00:23:06.843Z,18.60
2018-08-28T00:25:35.301Z,18.60
2018-08-28T00:28:03.739Z,18.50
2018-08-28T00:30:32.194Z,18.50
2018-08-28T00:33:00.649Z,18.40
2018-08-28T00:35:29.116Z,18.40
2018-08-28T00:37:57.573Z,18.30
2018-08-28T00:40:26.090Z,18.30
2018-08-28T00:42:54.532Z,18.20
2018-08-28T00:45:22.995Z,18.20
2018-08-28T00:47:51.436Z,18.20
2018-08-28T00:50:20.468Z,18.10
2018-08-28T00:52:48.885Z,18.00
2018-08-28T00:55:17.297Z,18.10
2018-08-28T00:57:45.770Z,18.00
2018-08-28T01:00:14.214Z,18.00
2018-08-28T01:02:42.652Z,18.00
2018-08-28T01:05:11.104Z,17.90
2018-08-28T01:07:39.546Z,17.90
2018-08-28T01:10:08.241Z,17.80
2018-08-28T01:12:36.713Z,17.80
2018-08-28T01:15:05.858Z,17.80
2018-08-28T01:17:34.320Z,17.80
2018-08-28T01:20:02.841Z,17.80
2018-08-28T01:22:31.292Z,17.70
2018-08-28T01:24:59.706Z,17.70
2018-08-28T01:27:28.157Z,17.70
2018-08-28T01:29:56.569Z,17.60
2018-08-28T01:32:25.072Z,17.60
2018-08-28T01:34:53.494Z,17.50
2018-08-28T01:37:21.940Z,17.40
2018-08-28T01:39:50.353Z,17.40
2018-08-28T01:42:21.928Z,17.30
2018-08-28T01:44:50.533Z,17.30
2018-08-28T01:47:19.470Z,17.30
2018-08-28T01:49:48.129Z,17.20
2018-08-28T01:52:16.581Z,17.10
2018-08-28T01:54:45.055Z,17.10
2018-08-28T01:57:13.535Z,17.10
2018-08-28T01:59:41.977Z,17.00
2018-08-28T02:02:10.428Z,16.90
2018-08-28T02:04:38.857Z,16.90
2018-08-28T02:07:07.287Z,16.90
2018-08-28T02:09:35.764Z,16.90
2018-08-28T02:12:04.176Z,16.90
2018-08-28T02:14:32.638Z,16.80
2018-08-28T02:17:01.086Z,16.80
2018-08-28T02:19:29.516Z,16.80
2018-08-28T02:21:57.973Z,16.80
2018-08-28T02:24:26.417Z,16.80
2018-08-28T02:26:54.879Z,16.80
2018-08-28T02:29:23.314Z,16.80
2018-08-28T02:31:51.767Z,16.80
2018-08-28T02:34:20.289Z,16.80
2018-08-28T02:36:48.861Z,16.80
2018-08-28T02:39:17.288Z,16.70
2018-08-28T02:41:45.742Z,16.70
2018-08-28T02:44:14.174Z,16.70
2018-08-28T02:46:42.628Z,16.80
2018-08-28T02:49:11.124Z,16.80
2018-08-28T02:51:39.569Z,16.70
2018-08-28T02:54:08.020Z,16.60
2018-08-28T02:56:36.480Z,16.60
2018-08-28T02:59:05.149Z,16.60
2018-08-28T03:01:33.561Z,16.60
2018-08-28T03:04:01.993Z,16.60
2018-08-28T03:06:30.473Z,16.60
2018-08-28T03:08:58.929Z,16.50
2018-08-28T03:11:27.420Z,16.50
2018-08-28T03:13:55.829Z,16.50
2018-08-28T03:16:24.341Z,16.50
2018-08-28T03:18:52.777Z,16.40
2018-08-28T03:21:21.229Z,16.40
2018-08-28T03:23:49.689Z,16.40
2018-08-28T03:26:18.131Z,16.30
2018-08-28T03:28:46.532Z,16.20
2018-08-28T03:31:14.993Z,16.20
2018-08-28T03:33:43.429Z,16.20
2018-08-28T03:36:11.877Z,16.10
2018-08-28T03:38:40.343Z,16.10
2018-08-28T03:41:08.777Z,16.10
2018-08-28T03:43:37.253Z,16.10
2018-08-28T03:46:05.762Z,16.10
2018-08-28T03:48:34.213Z,16.20
2018-08-28T03:51:02.620Z,16.20
2018-08-28T03:53:31.041Z,16.20
2018-08-28T03:55:59.470Z,16.30
2018-08-28T03:58:27.876Z,16.20
2018-08-28T04:00:56.325Z,16.30
2018-08-28T04:03:24.820Z,16.30
2018-08-28T04:05:53.248Z,16.20
2018-08-28T04:08:21.682Z,16.30
2018-08-28T04:10:50.100Z,16.40
2018-08-28T04:13:18.542Z,16.40
2018-08-28T04:15:46.980Z,16.40
2018-08-28T04:18:15.422Z,16.30
2018-08-28T04:20:43.873Z,16.40
2018-08-28T04:23:12.335Z,16.40
2018-08-28T04:25:40.940Z,16.40
2018-08-28T04:28:09.383Z,16.40
2018-08-28T04:30:37.872Z,16.40
2018-08-28T04:33:06.377Z,16.50
2018-08-28T04:35:34.854Z,16.40
2018-08-28T04:38:03.301Z,16.40
2018-08-28T04:40:31.714Z,16.40
2018-08-28T04:43:00.154Z,16.40
2018-08-28T04:45:28.588Z,16.40
2018-08-28T04:47:57.041Z,16.40
2018-08-28T04:50:25.488Z,16.30
2018-08-28T04:52:53.928Z,16.30
2018-08-28T04:55:22.385Z,16.30
2018-08-28T04:57:50.784Z,16.30
2018-08-28T05:00:19.217Z,16.30
2018-08-28T05:02:47.638Z,16.20
2018-08-28T05:05:16.068Z,16.20
2018-08-28T05:07:44.485Z,16.20
2018-08-28T05:10:13.082Z,16.30
2018-08-28T05:12:41.664Z,16.30
2018-08-28T05:15:10.177Z,16.40
2018-08-28T05:17:38.645Z,16.40
2018-08-28T05:20:07.577Z,16.40
2018-08-28T05:22:36.017Z,16.30
2018-08-28T05:25:04.480Z,16.30
2018-08-28T05:27:32.931Z,16.30
2018-08-28T05:30:01.347Z,16.30
2018-08-28T05:32:29.764Z,16.30
2018-08-28T05:34:58.247Z,16.30
2018-08-28T05:37:26.669Z,16.30
2018-08-28T05:39:55.082Z,16.30
2018-08-28T05:42:23.505Z,16.40
2018-08-28T05:44:51.965Z,16.50
2018-08-28T05:47:20.399Z,16.50
2018-08-28T05:49:48.836Z,16.50
2018-08-28T05:52:17.293Z,16.60
2018-08-28T05:54:45.732Z,16.60
2018-08-28T05:57:19.748Z,16.70
2018-08-28T05:59:48.201Z,16.70
2018-08-28T06:02:16.630Z,16.70
2018-08-28T06:04:45.074Z,16.70
2018-08-28T06:07:13.532Z,16.80
2018-08-28T06:09:41.954Z,16.90
2018-08-28T06:12:10.417Z,17.00
2018-08-28T06:14:38.923Z,17.10
2018-08-28T06:17:07.340Z,17.10
2018-08-28T06:19:35.803Z,17.10
2018-08-28T06:22:04.238Z,17.20
2018-08-28T06:24:32.667Z,17.30
2018-08-28T06:27:01.118Z,17.30
2018-08-28T06:29:29.594Z,17.40
2018-08-28T06:31:58.002Z,17.50
2018-08-28T06:34:26.439Z,17.60
2018-08-28T06:36:55.096Z,17.60
2018-08-28T06:39:23.644Z,17.60
2018-08-28T06:41:52.116Z,17.70
2018-08-28T06:44:20.624Z,17.80
2018-08-28T06:46:49.083Z,17.90
2018-08-28T06:49:17.648Z,18.10
2018-08-28T06:51:46.249Z,18.20
2018-08-28T06:54:15.045Z,18.30
2018-08-28T06:56:43.708Z,18.30
2018-08-28T06:59:12.143Z,18.50
2018-08-28T07:01:40.650Z,18.60
2018-08-28T07:04:09.073Z,18.70
2018-08-28T07:06:37.507Z,18.90
2018-08-28T07:09:07.265Z,19.00
2018-08-28T07:11:35.989Z,19.20
2018-08-28T07:14:04.727Z,19.40
2018-08-28T07:16:33.186Z,19.30
2018-08-28T07:19:02.347Z,19.40
2018-08-28T07:21:30.835Z,19.50
2018-08-28T07:23:59.540Z,19.50
2018-08-28T07:26:28.013Z,19.60
2018-08-28T07:28:56.602Z,19.70
2018-08-28T07:31:25.080Z,19.90
2018-08-28T07:33:53.504Z,20.10
2018-08-28T07:36:21.935Z,20.50
2018-08-28T07:38:51.237Z,20.90
2018-08-28T07:41:19.697Z,21.50
2018-08-28T07:43:48.181Z,22.10
2018-08-28T07:46:16.604Z,22.90
2018-08-28T07:48:45.038Z,23.80
2018-08-28T07:51:13.590Z,24.70
2018-08-28T07:53:42.153Z,25.30
2018-08-28T07:56:10.733Z,25.90
2018-08-28T07:58:39.173Z,26.70
2018-08-28T08:01:07.629Z,27.20
2018-08-28T08:03:36.088Z,27.50
2018-08-28T08:06:04.517Z,28.20
2018-08-28T08:08:32.951Z,28.70
2018-08-28T08:11:01.400Z,29.10
2018-08-28T08:13:29.885Z,29.50
2018-08-28T08:15:59.337Z,29.70
2018-08-28T08:18:27.749Z,29.70
2018-08-28T08:20:56.198Z,29.80
2018-08-28T08:23:25.578Z,30.40
2018-08-28T08:25:54.045Z,30.90
2018-08-28T08:28:22.590Z,31.60
2018-08-28T08:30:50.964Z,32.10
2018-08-28T08:33:19.401Z,32.00
2018-08-28T08:35:47.828Z,32.10
2018-08-28T08:38:16.294Z,32.70
2018-08-28T08:40:44.869Z,32.60
2018-08-28T08:43:13.305Z,32.80
2018-08-28T08:45:41.756Z,33.20
2018-08-28T08:48:10.321Z,33.30
2018-08-28T08:50:38.838Z,33.10
2018-08-28T08:53:07.343Z,33.50
2018-08-28T08:55:36.690Z,33.80
2018-08-28T08:58:05.382Z,34.20
2018-08-28T09:00:33.927Z,34.10
2018-08-28T09:03:02.356Z,34.20
2018-08-28T09:05:30.884Z,34.10
2018-08-28T09:07:59.328Z,34.00
2018-08-28T09:10:27.757Z,33.70
2018-08-28T09:12:56.288Z,34.00
2018-08-28T09:15:24.848Z,34.30
2018-08-28T09:17:53.287Z,34.30
2018-08-28T09:20:21.768Z,34.30
2018-08-28T09:22:50.260Z,34.40
2018-08-28T09:25:18.725Z,34.20
2018-08-28T09:27:47.166Z,34.20
2018-08-28T09:30:15.656Z,33.70
2018-08-28T09:32:44.155Z,33.80
2018-08-28T09:35:12.612Z,34.00
2018-08-28T09:37:41.040Z,33.50
2018-08-28T09:40:09.508Z,33.00
2018-08-28T09:42:37.925Z,32.40
2018-08-28T09:45:06.429Z,32.10
2018-08-28T09:47:34.846Z,32.80
2018-08-28T09:50:03.285Z,33.10
2018-08-28T09:52:31.732Z,32.90
2018-08-28T09:55:00.182Z,33.30
2018-08-28T09:57:28.756Z,33.20
2018-08-28T09:59:57.188Z,33.60
2018-08-28T10:02:25.727Z,33.40
2018-08-28T10:04:54.234Z,32.80
2018-08-28T10:07:22.669Z,32.70
2018-08-28T10:09:51.175Z,33.20
2018-08-28T10:12:19.601Z,33.30
2018-08-28T10:14:48.016Z,33.40
2018-08-28T10:17:16.459Z,33.30
2018-08-28T10:19:44.906Z,32.50
2018-08-28T10:22:13.309Z,33.20
2018-08-28T10:24:41.765Z,33.50
2018-08-28T10:27:10.180Z,33.70
2018-08-28T10:29:38.630Z,33.90
2018-08-28T10:32:07.054Z,33.60
2018-08-28T10:34:36.013Z,33.40
2018-08-28T10:37:04.556Z,33.70
2018-08-28T10:39:33.039Z,33.60
2018-08-28T10:42:01.461Z,33.30
2018-08-28T10:44:29.908Z,33.00
2018-08-28T10:46:58.412Z,33.30
2018-08-28T10:49:26.788Z,33.30
2018-08-28T10:51:55.289Z,33.50
2018-08-28T10:54:23.689Z,33.30
2018-08-28T10:56:52.136Z,33.50
2018-08-28T10:59:20.565Z,33.40
2018-08-28T11:01:48.988Z,33.30
2018-08-28T11:04:17.465Z,33.30
2018-08-28T11:06:45.905Z,33.40
2018-08-28T11:09:14.342Z,33.10
2018-08-28T11:11:42.955Z,33.30
2018-08-28T11:14:11.432Z,33.90
2018-08-28T11:16:39.906Z,34.10
2018-08-28T11:19:08.577Z,33.90
2018-08-28T11:21:37.029Z,33.70
2018-08-28T11:24:05.469Z,33.90
2018-08-28T11:26:33.914Z,34.00
2018-08-28T11:29:02.389Z,33.90
2018-08-28T11:31:30.830Z,33.90
2018-08-28T11:33:59.271Z,33.70
2018-08-28T11:36:27.728Z,33.60
2018-08-28T11:38:56.160Z,34.00
2018-08-28T11:41:24.636Z,34.40
2018-08-28T11:43:53.216Z,34.40
2018-08-28T11:46:21.644Z,34.30
2018-08-28T11:48:50.064Z,34.40
2018-08-28T11:51:18.517Z,34.40
2018-08-28T11:53:48.028Z,34.10
2018-08-28T11:56:16.652Z,34.30
2018-08-28T11:58:45.362Z,33.60
2018-08-28T12:01:13.785Z,34.10
2018-08-28T12:03:43.141Z,34.30
2018-08-28T12:06:11.607Z,34.20
2018-08-28T12:08:41.185Z,34.40
2018-08-28T12:11:09.774Z,34.60
2018-08-28T12:13:38.316Z,34.10
2018-08-28T12:16:07.008Z,34.30
2018-08-28T12:18:35.482Z,34.30
2018-08-28T12:21:04.144Z,34.70
2018-08-28T12:23:32.586Z,34.60
2018-08-28T12:26:01.006Z,34.40
2018-08-28T12:28:29.449Z,34.50
2018-08-28T12:30:57.884Z,34.50
2018-08-28T12:33:26.326Z,34.20
2018-08-28T12:35:54.797Z,33.30
2018-08-28T12:38:23.270Z,34.30
2018-08-28T12:40:51.751Z,34.60
2018-08-28T12:43:20.200Z,34.70
2018-08-28T12:45:48.631Z,34.70
2018-08-28T12:48:17.157Z,34.80
2018-08-28T12:50:45.592Z,34.80
2018-08-28T12:53:14.105Z,34.90
2018-08-28T12:55:42.557Z,35.00
2018-08-28T12:58:10.972Z,34.70
2018-08-28T13:00:39.482Z,34.40
2018-08-28T13:03:09.140Z,34.40
2018-08-28T13:05:37.552Z,34.40
2018-08-28T13:08:06.023Z,34.70
2018-08-28T13:10:34.489Z,34.80
2018-08-28T13:13:02.906Z,34.30
2018-08-28T13:15:31.361Z,34.30
2018-08-28T13:17:59.822Z,34.20
2018-08-28T13:20:28.272Z,34.30
2018-08-28T13:22:56.706Z,34.30
2018-08-28T13:25:25.291Z,34.60
2018-08-28T13:27:53.773Z,34.40
2018-08-28T13:30:22.305Z,34.30
2018-08-28T13:32:50.782Z,34.50
2018-08-28T13:35:19.467Z,34.00
2018-08-28T13:37:47.921Z,33.70
2018-08-28T13:40:16.440Z,33.90
2018-08-28T13:42:45.167Z,33.80
2018-08-28T13:45:13.623Z,34.10
2018-08-28T13:47:42.113Z,34.00
2018-08-28T13:50:10.573Z,33.90
2018-08-28T13:52:39.045Z,33.90
2018-08-28T13:55:07.498Z,33.90
2018-08-28T13:57:35.943Z,34.20
2018-08-28T14:00:04.487Z,34.30
2018-08-28T14:02:32.892Z,34.30
2018-08-28T14:05:01.370Z,34.10
2018-08-28T14:07:29.816Z,34.20
2018-08-28T14:09:58.356Z,34.10
2018-08-28T14:12:26.796Z,34.40
2018-08-28T14:14:55.403Z,34.40
2018-08-28T14:17:23.792Z,34.10
2018-08-28T14:19:52.725Z,34.30
2018-08-28T14:22:21.219Z,34.00
2018-08-28T14:24:49.673Z,33.90
2018-08-28T14:27:18.158Z,33.80
2018-08-28T14:29:46.652Z,33.90
2018-08-28T14:32:15.795Z,34.10
2018-08-28T14:34:44.777Z,34.00
2018-08-28T14:37:13.288Z,34.40
2018-08-28T14:39:41.721Z,34.40
2018-08-28T14:42:10.159Z,33.90
2018-08-28T14:44:38.613Z,33.40
2018-08-28T14:47:07.345Z,34.00
2018-08-28T14:49:35.794Z,34.10
2018-08-28T14:52:04.245Z,34.00
2018-08-28T14:54:32.686Z,33.70
2018-08-28T14:57:01.165Z,33.10
2018-08-28T14:59:29.665Z,33.20
2018-08-28T15:01:58.106Z,32.40
2018-08-28T15:04:26.552Z,33.00
2018-08-28T15:06:55.009Z,33.20
2018-08-28T15:09:23.470Z,33.40
2018-08-28T15:11:51.921Z,33.20
2018-08-28T15:14:20.429Z,33.30
2018-08-28T15:16:48.992Z,33.60
2018-08-28T15:19:17.420Z,33.50
2018-08-28T15:21:45.865Z,33.00
2018-08-28T15:24:14.324Z,32.70
2018-08-28T15:26:42.759Z,32.30
2018-08-28T15:29:11.225Z,32.20
2018-08-28T15:31:39.662Z,31.60
2018-08-28T15:34:08.085Z,31.90
2018-08-28T15:36:36.501Z,32.10
2018-08-28T15:39:06.227Z,32.30
2018-08-28T15:41:34.645Z,32.00
2018-08-28T15:44:03.107Z,31.80
2018-08-28T15:46:31.518Z,31.80
2018-08-28T15:49:00.069Z,31.80
2018-08-28T15:51:28.634Z,31.50
2018-08-28T15:53:56.997Z,31.20
2018-08-28T15:56:25.451Z,30.90
2018-08-28T15:58:53.958Z,30.80
2018-08-28T16:01:22.593Z,30.60
2018-08-28T16:03:51.029Z,30.50
2018-08-28T16:06:19.512Z,30.40
2018-08-28T16:08:48.149Z,30.60
2018-08-28T16:11:16.593Z,30.70
2018-08-28T16:13:45.026Z,30.00
2018-08-28T16:16:13.450Z,30.30
2018-08-28T16:18:41.862Z,30.20
2018-08-28T16:21:10.299Z,30.20
2018-08-28T16:23:41.171Z,29.90
2018-08-28T16:26:09.597Z,29.60
2018-08-28T16:28:38.133Z,29.30
2018-08-28T16:31:06.729Z,29.00
2018-08-28T16:33:35.165Z,27.90
2018-08-28T16:36:03.605Z,27.70
2018-08-28T16:38:32.044Z,27.40
2018-08-28T16:41:00.532Z,27.20
2018-08-28T16:43:28.928Z,27.20
2018-08-28T16:45:57.357Z,27.30
2018-08-28T16:48:25.895Z,27.20
2018-08-28T16:50:54.356Z,27.40
2018-08-28T16:53:22.789Z,27.40
2018-08-28T16:55:51.350Z,27.20
2018-08-28T16:58:19.704Z,26.70
2018-08-28T17:00:48.191Z,26.80
2018-08-28T17:03:16.637Z,26.80
2018-08-28T17:05:45.091Z,26.70
2018-08-28T17:08:13.527Z,26.60
2018-08-28T17:10:41.977Z,26.30
2018-08-28T17:13:10.409Z,26.30
2018-08-28T17:15:38.841Z,26.30
2018-08-28T17:18:07.254Z,26.00
2018-08-28T17:20:35.729Z,25.90
2018-08-28T17:23:04.190Z,26.00
2018-08-28T17:25:32.614Z,25.80
2018-08-28T17:28:01.072Z,25.70
2018-08-28T17:30:29.550Z,25.50
2018-08-28T17:32:58.116Z,25.30
2018-08-28T17:35:26.650Z,25.20
2018-08-28T17:37:55.096Z,25.20
2018-08-28T17:40:23.549Z,25.00
2018-08-28T17:42:52.026Z,25.00
2018-08-28T17:45:20.973Z,25.00
2018-08-28T17:47:49.428Z,24.80
2018-08-28T17:50:17.922Z,24.70
2018-08-28T17:52:46.391Z,24.60
2018-08-28T17:55:14.826Z,24.70
2018-08-28T17:57:43.349Z,24.60
2018-08-28T18:00:11.912Z,24.40
2018-08-28T18:02:40.606Z,24.30
2018-08-28T18:05:09.089Z,24.20
2018-08-28T18:07:37.962Z,24.10
2018-08-28T18:10:06.617Z,23.90
2018-08-28T18:12:35.053Z,23.80
2018-08-28T18:15:03.533Z,23.70
2018-08-28T18:17:32.056Z,23.60
2018-08-28T18:20:00.515Z,23.50
2018-08-28T18:22:29.036Z,23.40
2018-08-28T18:24:57.471Z,23.30
2018-08-28T18:27:25.924Z,23.20
2018-08-28T18:29:54.373Z,23.00
2018-08-28T18:32:22.816Z,23.00
2018-08-28T18:34:51.218Z,22.90
2018-08-28T18:37:19.773Z,22.80
2018-08-28T18:39:48.795Z,22.70
2018-08-28T18:42:17.245Z,22.60
2018-08-28T18:44:45.773Z,22.50
2018-08-28T18:47:14.202Z,22.30
2018-08-28T18:49:42.665Z,22.30
2018-08-28T18:52:11.084Z,22.20
2018-08-28T18:54:39.540Z,22.10
2018-08-28T18:57:07.979Z,22.00
2018-08-28T18:59:36.445Z,22.00
2018-08-28T19:02:04.965Z,21.80
2018-08-28T19:04:33.452Z,21.80
2018-08-28T19:07:01.920Z,21.80
2018-08-28T19:09:30.411Z,21.70
2018-08-28T19:11:58.850Z,21.60
2018-08-28T19:14:27.295Z,21.50
2018-08-28T19:16:55.834Z,21.50
2018-08-28T19:19:24.300Z,21.40
2018-08-28T19:21:52.782Z,21.30
2018-08-28T19:24:21.233Z,21.20
2018-08-28T19:26:49.752Z,21.20
2018-08-28T19:29:18.273Z,21.20
2018-08-28T19:31:46.800Z,21.10
2018-08-28T19:34:15.158Z,21.00
2018-08-28T19:36:43.577Z,20.90
2018-08-28T19:39:12.005Z,20.90
2018-08-28T19:41:40.454Z,20.80
2018-08-28T19:44:08.969Z,20.80
2018-08-28T19:46:37.468Z,20.70
2018-08-28T19:49:06.021Z,20.60
2018-08-28T19:51:34.444Z,20.60
2018-08-28T19:54:02.986Z,20.50
2018-08-28T19:56:31.421Z,20.50
2018-08-28T19:58:59.849Z,20.40
2018-08-28T20:01:28.284Z,20.30
2018-08-28T20:03:56.763Z,20.20
2018-08-28T20:06:25.185Z,20.10
2018-08-28T20:08:53.642Z,20.10
2018-08-28T20:11:22.082Z,20.10
2018-08-28T20:13:50.762Z,20.10
2018-08-28T20:16:19.414Z,20.00
2018-08-28T20:18:47.964Z,20.00
2018-08-28T20:21:16.396Z,19.90
2018-08-28T20:23:44.920Z,19.90
2018-08-28T20:26:13.341Z,19.80
2018-08-28T20:28:41.768Z,19.80
2018-08-28T20:31:10.233Z,19.70
2018-08-28T20:33:38.707Z,19.70
2018-08-28T20:36:07.125Z,19.60
2018-08-28T20:38:35.596Z,19.60
2018-08-28T20:41:04.021Z,19.60
2018-08-28T20:43:32.574Z,19.50
2018-08-28T20:46:00.976Z,19.50
2018-08-28T20:48:29.428Z,19.40
2018-08-28T20:50:57.913Z,19.40
2018-08-28T20:53:26.342Z,19.40
2018-08-28T20:55:55.017Z,19.30
2018-08-28T20:58:23.480Z,19.30
2018-08-28T21:00:52.243Z,19.20
2018-08-28T21:03:20.853Z,19.20
2018-08-28T21:05:49.277Z,19.10
2018-08-28T21:08:17.854Z,19.00
2018-08-28T21:10:46.280Z,18.90
2018-08-28T21:13:14.761Z,18.90
2018-08-28T21:15:43.261Z,18.90
2018-08-28T21:18:11.773Z,18.90
2018-08-28T21:20:40.217Z,18.80
2018-08-28T21:23:08.669Z,18.80
2018-08-28T21:25:37.079Z,18.80
2018-08-28T21:28:05.990Z,18.70
2018-08-28T21:30:34.506Z,18.50
2018-08-28T21:33:02.958Z,18.50
2018-08-28T21:35:31.440Z,18.40
2018-08-28T21:37:59.921Z,18.40
2018-08-28T21:40:28.450Z,18.30
2018-08-28T21:42:56.970Z,18.20
2018-08-28T21:45:25.438Z,18.20
2018-08-28T21:47:53.865Z,18.20
2018-08-28T21:50:22.325Z,18.10
2018-08-28T21:52:50.744Z,18.00
2018-08-28T21:55:19.184Z,18.00
2018-08-28T21:57:47.797Z,18.00
2018-08-28T22:00:16.337Z,17.90
2018-08-28T22:02:45.732Z,17.90
2018-08-28T22:05:14.224Z,17.90
2018-08-28T22:07:43.217Z,17.90
2018-08-28T22:10:12.162Z,17.80
2018-08-28T22:12:40.627Z,17.80
2018-08-28T22:15:13.690Z,17.80
2018-08-28T22:17:42.672Z,17.70
2018-08-28T22:20:11.123Z,17.70
2018-08-28T22:22:39.593Z,17.60
2018-08-28T22:25:08.045Z,17.60
2018-08-28T22:27:36.633Z,17.60
2018-08-28T22:30:06.312Z,17.50
2018-08-28T22:32:34.730Z,17.50
2018-08-28T22:35:03.326Z,17.50
2018-08-28T22:37:32.334Z,17.50
2018-08-28T22:40:00.762Z,17.40
2018-08-28T22:42:29.165Z,17.40
2018-08-28T22:44:57.641Z,17.30
2018-08-28T22:47:26.282Z,17.30
2018-08-28T22:49:55.332Z,17.20
2018-08-28T22:52:23.785Z,17.20
2018-08-28T22:54:52.900Z,17.20
2018-08-28T22:57:22.209Z,17.10
2018-08-28T22:59:50.624Z,17.10
2018-08-28T23:02:19.039Z,17.00
2018-08-28T23:04:47.506Z,17.00
2018-08-28T23:07:15.932Z,16.90
2018-08-28T23:09:44.445Z,16.90
2018-08-28T23:12:13.018Z,16.90
2018-08-28T23:14:41.393Z,16.90
2018-08-28T23:17:09.802Z,16.90
2018-08-28T23:19:38.287Z,16.80
2018-08-28T23:22:06.726Z,16.80
2018-08-28T23:24:35.156Z,16.80
2018-08-28T23:27:03.633Z,16.70
2018-08-28T23:29:32.604Z,16.70
2018-08-28T23:32:01.425Z,16.70
2018-08-28T23:34:29.867Z,16.60
2018-08-28T23:36:58.280Z,16.60
2018-08-28T23:39:26.685Z,16.50
2018-08-28T23:41:55.100Z,16.40
2018-08-28T23:44:23.632Z,16.50
2018-08-28T23:46:52.086Z,16.50
2018-08-28T23:49:20.550Z,16.50
2018-08-28T23:51:48.980Z,16.40
2018-08-28T23:54:17.417Z,16.40
2018-08-28T23:56:45.921Z,16.40
2018-08-28T23:59:14.361Z,16.30
